CDT,Max TemperatureF,Mean TemperatureF,Min TemperatureF,Max Dew PointF,MeanDew PointF,Min DewpointF,Max Humidity, Mean Humidity, Min Humidity, Max Sea Level PressureIn, Mean Sea Level PressureIn, Min Sea Level PressureIn, Max VisibilityMiles, Mean VisibilityMiles, Min VisibilityMiles, Max Wind SpeedMPH, Mean Wind SpeedMPH, Max Gust SpeedMPH,PrecipitationIn, CloudCover, Events, WindDirDegrees
2012-10-1,75,64,52,54,48,42,80,58,35,29.86,29.78,29.73,10,10,10,18,7,25,0.00,0,,342
2012-10-2,76,63,49,49,46,45,83,59,35,29.94,29.88,29.83,10,10,6,13,5,18,0.00,0,,295
2012-10-3,76,64,52,55,51,48,93,66,38,30.07,29.99,29.93,10,10,9,14,5,16,0.00,1,,169
2012-10-4,83,68,52,57,54,51,93,64,34,30.19,30.13,30.07,10,10,8,15,6,18,0.00,0,,156
2012-10-5,69,54,38,57,48,37,100,84,68,30.24,30.13,30.07,10,7,2,14,6,21,0.38,8,Rain-Thunderstorm,358
2012-10-6,49,43,36,38,36,33,100,80,60,30.31,30.26,30.22,10,10,10,12,5,17,0.03,5,Rain,337
2012-10-7,55,44,33,40,33,29,89,64,38,30.31,30.26,30.20,10,10,10,10,3,16,0.00,3,,324
2012-10-8,60,47,34,39,37,32,100,72,44,30.26,30.17,30.09,10,10,10,13,4,22,0.00,0,,165
2012-10-9,68,53,38,54,46,37,100,72,44,30.08,30.02,29.94,10,10,10,18,7,26,T,4,,164
2012-10-10,64,52,40,54,40,30,86,58,30,30.29,30.19,30.06,10,10,10,16,5,24,0.00,4,,13
2012-10-11,64,57,50,57,50,39,100,78,55,30.22,30.16,30.11,10,10,7,13,7,17,0.14,6,Rain-Thunderstorm,134
2012-10-12,66,61,55,61,58,54,100,94,87,30.31,30.23,30.13,10,5,0,18,6,25,1.61,6,Fog-Rain-Thunderstorm,133
2012-10-13,74,65,56,66,62,56,100,84,68,30.16,30.01,29.82,10,6,0,22,12,30,0.52,7,Fog-Rain-Thunderstorm,164
2012-10-14,72,64,56,61,54,45,93,70,47,30.04,29.87,29.71,10,10,5,18,9,28,0.17,3,Rain,244
2012-10-15,79,65,51,49,45,42,72,50,28,30.06,29.99,29.92,10,10,10,14,5,20,0.00,0,,260
2012-10-16,79,69,58,49,42,37,67,45,23,29.91,29.79,29.67,10,10,10,21,9,31,0.00,0,,182
2012-10-17,73,62,51,61,55,42,86,74,61,29.73,29.58,29.47,10,10,8,23,9,31,0.06,5,Rain-Thunderstorm,221
2012-10-18,64,55,46,39,29,22,66,44,21,29.82,29.77,29.73,10,10,7,22,10,32,0.00,1,,269
2012-10-19,61,51,41,40,34,25,82,55,28,29.88,29.79,29.71,10,9,6,23,8,32,0.00,4,,286
2012-10-20,80,60,39,46,41,37,92,58,23,29.92,29.86,29.79,10,10,10,13,5,17,0.00,0,,150
2012-10-21,80,69,58,65,58,46,79,68,56,29.91,29.87,29.83,10,10,10,21,10,25,0.00,1,,161
2012-10-22,81,75,68,64,63,61,81,68,54,29.99,29.93,29.88,10,10,10,18,11,25,T,4,Rain,178
2012-10-23,84,74,64,61,56,52,81,60,39,29.99,29.92,29.87,10,10,10,18,9,25,0.00,2,,178
2012-10-24,82,72,61,63,60,59,93,70,47,30.01,29.93,29.83,10,10,9,21,11,28,0.00,0,,163
2012-10-25,80,62,44,63,53,39,93,73,52,30.17,29.94,29.81,10,9,2,22,10,30,0.09,5,Rain,253
2012-10-26,52,44,35,37,31,28,79,60,41,30.33,30.26,30.16,10,10,10,18,9,26,0.00,4,,347
2012-10-27,53,41,29,30,27,24,92,62,32,30.35,30.28,30.19,10,9,1,13,5,17,0.00,0,,319
2012-10-28,55,41,27,30,26,23,92,61,29,30.31,30.26,30.22,10,10,9,12,4,15,0.00,0,,324
2012-10-29,58,43,27,30,26,22,85,56,26,30.35,30.25,30.13,10,10,7,7,2,9,0.00,1,,244
2012-10-30,64,47,30,36,31,27,92,61,30,30.11,30.03,29.95,10,10,10,10,2,14,0.00,1,,294
2012-10-31,66,52,37,37,34,29,82,58,33,30.06,30.01,29.96,10,10,10,13,3,17,0.00,1,,292